Flight Track Log - Related Links

Times and Time Zones

All times are in EDT time to prevent confusion due to time zone crossing. See the UAL4234 flight status page for this flight to view local times or setup timezone preferences in your user account.

Time Position Orientation Groundspeed Altitude Reporting Facility
EDT Latitude Longitude Course Direction KTS MPH feet Rate Location/Type
Mon 08:22:32 AM 42.0000 -87.9500 37° Northeast 161 185 2,500  Level Chicago TRACON
Mon 08:23:38 AM 42.0500 -87.9000 37° Northeast 241 277 4,200 1,238 Climbing Chicago TRACON
Mon 08:24:38 AM 42.1167 -87.8333 37° Northeast 270 311 5,100 1,391 Climbing Chicago TRACON
Mon 08:26:09 AM 42.1356 -87.6886 80° East 296 341 7,700 1,843 Climbing Chicago Center
Mon 08:27:11 AM 42.1314 -87.5689 93° East 313 360 9,800 2,032 Climbing Chicago Center
Mon 08:28:13 AM 42.1264 -87.4475 93° East 321 369 11,900 1,839 Climbing Chicago Center
Mon 08:29:15 AM 42.1228 -87.3222 92° East 330 380 13,600 1,403 Climbing Chicago Center
Mon 08:30:17 AM 42.1172 -87.1908 93° East 344 396 14,800 1,113 Climbing Chicago Center
Mon 08:31:19 AM 42.1136 -87.0508 92° East 365 420 15,900 1,104 Climbing Chicago Center
Mon 08:32:22 AM 42.1211 -86.8714 87° East 394 453 17,100 1,104 Climbing Chicago Center
Mon 08:33:24 AM 42.1269 -86.7164 87° East 409 471 18,200 1,065 Climbing Chicago Center
Mon 08:34:26 AM 42.1303 -86.5542 88° East 425 489 19,300 1,016 Climbing Chicago Center
Mon 08:35:28 AM 42.1356 -86.3911 87° East 432 497 20,300 968 Climbing Chicago Center
Mon 08:36:30 AM 42.1406 -86.2256 88° East 438 504 21,300 1,016 Climbing Chicago Center
Mon 08:37:32 AM 42.1436 -86.0569 89° East 446 513 22,400 1,065 Climbing Chicago Center
Mon 08:38:34 AM 42.1417 -85.8697 91° East 454 522 23,500 1,016 Climbing Chicago Center
Mon 08:39:36 AM 42.1406 -85.6994 90° East 457 526 24,500 968 Climbing Chicago Center
Mon 08:40:38 AM 42.1386 -85.5283 91° East 460 529 25,500 1,065 Climbing Chicago Center
Mon 08:41:40 AM 42.1367 -85.3225 91° East 462 532 26,700 1,065 Climbing Chicago Center
Mon 08:42:42 AM 42.1356 -85.1475 90° East 468 539 27,700 968 Climbing Chicago Center
Mon 08:43:44 AM 42.1325 -84.9739 91° East 468 539 28,700 871 Climbing Chicago Center
Mon 08:44:46 AM 42.1300 -84.7981 91° East 470 541 29,500 774 Climbing Chicago Center
Mon 08:45:48 AM 42.1319 -84.6208 89° East 476 548 30,300 726 Climbing Chicago Center
Mon 08:46:50 AM 42.1467 -84.4397 84° East 485 558 31,000 408 Climbing Chicago Center
Mon 08:47:31 AM 42.1586 -84.3064 83° East 502 578 31,000  Level Cleveland Center
Mon 08:48:33 AM 42.1786 -84.0717 83° East 523 602 31,000  Level Cleveland Center
Mon 08:49:35 AM 42.1950 -83.8761 83° East 528 608 31,000  Level Cleveland Center
Mon 08:50:37 AM 42.2114 -83.6789 84° East 532 612 31,000 -387 Level Cleveland Center
Mon 08:51:39 AM 42.2281 -83.4750 84° East 535 616 30,200 -1,113 Descending Cleveland Center
Mon 08:52:41 AM 42.2439 -83.2728 84° East 537 618 28,700 -1,452 Descending Cleveland Center
Mon 08:53:43 AM 42.2608 -83.0569 84° East 539 620 27,200 -823 Descending Cleveland Center
Mon 08:54:45 AM 42.2756 -82.8569 84° East 540 621 27,000 -96 Descending Cleveland Center
Mon 08:55:48 AM 42.2911 -82.6556 84° East 540 621 27,000  Level Cleveland Center
Mon 08:56:50 AM 42.3044 -82.4556 85° East 538 619 27,000  Level Cleveland Center
Mon 08:57:52 AM 42.3217 -82.2156 84° East 537 618 27,000  Level Cleveland Center
Mon 08:58:54 AM 42.3350 -82.0208 85° East 537 618 27,000  Level Cleveland Center
Mon 08:59:56 AM 42.3483 -81.8189 85° East 535 616 27,000  Level Cleveland Center
Mon 09:00:58 AM 42.3622 -81.6156 85° East 535 616 27,000  Level Cleveland Center
Mon 09:02:00 AM 42.3753 -81.4139 85° East 534 615 27,000  Level Cleveland Center
Mon 09:03:02 AM 42.3875 -81.2122 85° East 533 613 27,000  Level Cleveland Center
Mon 09:04:04 AM 42.4017 -80.9772 85° East 533 613 27,000  Level Cleveland Center
Mon 09:05:06 AM 42.4133 -80.7764 85° East 530 610 27,000 -48 Level Cleveland Center
Mon 09:06:08 AM 42.4256 -80.5772 85° East 526 605 26,900 -871 Descending Cleveland Center
Mon 09:07:10 AM 42.4358 -80.3736 86° East 535 616 25,200 -1,742 Descending Cleveland Center
Mon 09:08:12 AM 42.4475 -80.1775 85° East 523 602 23,300 -1,984 Descending Cleveland Center
Mon 09:09:14 AM 42.4575 -79.9792 86° East 496 571 21,100 -2,208 Descending Cleveland Center
Mon 09:10:17 AM 42.4661 -79.8106 86° East 464 534 18,700 -2,400 Descending Cleveland Center
Mon 09:11:19 AM 42.4733 -79.6447 87° East 445 512 16,100 -2,806 Descending Cleveland Center
Mon 09:12:21 AM 42.5244 -79.4736 68° East 420 483 12,900 -2,468 Descending Cleveland Center
Mon 09:13:23 AM 42.5936 -79.3547 52° Northeast 405 466 11,000 -919 Descending Cleveland Center
Mon 09:14:25 AM 42.6600 -79.2439 51° Northeast 383 441 11,000 -194 Level Cleveland Center
Mon 09:15:27 AM 42.7272 -79.1475 46° Northeast 346 398 10,600 -1,113 Descending Cleveland Center
Mon 09:16:29 AM 42.8022 -79.0569 42° Northeast 322 371 8,700 -1,694 Descending Cleveland Center
Mon 09:17:31 AM 42.8692 -78.9789 41° Northeast 306 352 7,100 -1,500 Descending Cleveland Center
Mon 09:18:33 AM 42.9300 -78.9089 40° Northeast 299 344 5,600 -1,694 Descending Cleveland Center
Mon 09:19:35 AM 42.9933 -78.8342 41° Northeast 292 336 3,600 -1,597 Descending Cleveland Center
Mon 09:20:37 AM 43.0411 -78.7489 53° Northeast 277 319 2,300 -629 Descending Cleveland Center
Mon 09:21:39 AM 43.0167 -78.6819 117° Southeast 186 214 2,300 -242 Level Cleveland Center
Mon 09:22:41 AM 42.9864 -78.6731 168° South 121 139 1,800 -595 Descending Cleveland Center
Mon 09:23:50 AM 42.9500 -78.7000 208° Southwest 113 130 1,000 -696 Descending Buffalo TRACON

Login

Don't have an account? Register now (free) for customized features, flight alerts, and more!